createdAt,value
2022-10-17T00:00:52.127Z,13.60
2022-10-17T00:03:19.562Z,13.60
2022-10-17T00:05:48.316Z,13.60
2022-10-17T00:08:16.336Z,13.60
2022-10-17T00:10:43.891Z,13.60
2022-10-17T00:13:11.609Z,13.60
2022-10-17T00:15:39.162Z,13.60
2022-10-17T00:18:06.568Z,13.60
2022-10-17T00:20:35.459Z,13.70
2022-10-17T00:23:02.846Z,13.70
2022-10-17T00:25:30.268Z,13.80
2022-10-17T00:27:57.826Z,13.80
2022-10-17T00:30:25.465Z,13.80
2022-10-17T00:32:52.896Z,13.80
2022-10-17T00:35:20.601Z,13.90
2022-10-17T00:37:49.097Z,13.90
2022-10-17T00:40:18.028Z,13.90
2022-10-17T00:42:47.536Z,14.00
2022-10-17T00:45:27.192Z,14.00
2022-10-17T00:47:58.179Z,14.00
2022-10-17T00:50:25.912Z,14.10
2022-10-17T00:52:53.414Z,14.10
2022-10-17T00:55:31.219Z,14.20
2022-10-17T00:58:00.774Z,14.20
2022-10-17T01:00:28.209Z,14.20
2022-10-17T01:02:55.767Z,14.30
2022-10-17T01:05:23.217Z,14.30
2022-10-17T01:07:51.628Z,14.30
2022-10-17T01:10:19.863Z,14.30
2022-10-17T01:13:11.612Z,14.30
2022-10-17T01:15:51.604Z,14.40
2022-10-17T01:18:22.010Z,14.30
2022-10-17T01:20:52.576Z,14.30
2022-10-17T01:23:30.628Z,14.30
2022-10-17T01:26:01.363Z,14.30
2022-10-17T01:31:16.433Z,14.20
2022-10-17T01:33:43.995Z,14.10
2022-10-17T01:36:14.576Z,14.10
2022-10-17T01:38:46.021Z,14.00
2022-10-17T01:41:25.875Z,14.00
2022-10-17T01:43:55.836Z,13.90
2022-10-17T01:46:27.598Z,13.90
2022-10-17T01:48:56.125Z,13.80
2022-10-17T01:51:28.165Z,13.80
2022-10-17T01:54:09.694Z,13.80
2022-10-17T01:56:38.217Z,13.80
2022-10-17T01:59:20.683Z,13.70
2022-10-17T02:01:50.888Z,13.70
2022-10-17T02:04:18.487Z,13.70
2022-10-17T02:06:45.924Z,13.60
2022-10-17T02:09:17.365Z,13.60
2022-10-17T02:11:48.147Z,13.60
2022-10-17T02:14:18.646Z,13.60
2022-10-17T02:16:51.880Z,13.60
2022-10-17T02:19:22.437Z,13.60
2022-10-17T02:21:53.305Z,13.50
2022-10-17T02:24:25.643Z,13.50
2022-10-17T02:26:56.760Z,13.50
2022-10-17T02:29:30.670Z,13.50
2022-10-17T02:31:59.971Z,13.50
2022-10-17T02:34:35.341Z,13.40
2022-10-17T02:37:05.698Z,13.50
2022-10-17T02:39:34.760Z,13.50
2022-10-17T02:42:03.677Z,13.50
2022-10-17T02:44:32.285Z,13.50
2022-10-17T02:47:03.608Z,13.40
2022-10-17T02:49:36.199Z,13.40
2022-10-17T02:52:08.351Z,13.40
2022-10-17T02:54:45.784Z,13.40
2022-10-17T02:57:13.276Z,13.40
2022-10-17T02:59:41.887Z,13.40
2022-10-17T03:02:09.327Z,13.40
2022-10-17T03:04:37.613Z,13.40
2022-10-17T03:07:04.988Z,13.40
2022-10-17T03:09:32.408Z,13.40
2022-10-17T03:11:59.884Z,13.40
2022-10-17T03:14:27.291Z,13.40
2022-10-17T03:16:54.731Z,13.40
2022-10-17T03:19:22.725Z,13.40
2022-10-17T03:21:52.077Z,13.40
2022-10-17T03:24:19.554Z,13.40
2022-10-17T03:29:19.497Z,13.40
2022-10-17T03:31:47.605Z,13.30
2022-10-17T03:34:17.757Z,13.30
2022-10-17T03:36:45.661Z,13.30
2022-10-17T03:39:13.181Z,13.30
2022-10-17T03:41:40.949Z,13.30
2022-10-17T03:44:08.324Z,13.20
2022-10-17T03:46:35.837Z,13.30
2022-10-17T03:49:04.338Z,13.20
2022-10-17T03:51:33.189Z,13.20
2022-10-17T03:54:05.411Z,13.20
2022-10-17T03:56:33.833Z,13.00
2022-10-17T03:59:07.784Z,13.00
2022-10-17T04:01:37.790Z,12.90
2022-10-17T04:04:05.498Z,12.90
2022-10-17T04:06:35.560Z,12.80
2022-10-17T04:09:04.304Z,12.80
2022-10-17T04:11:51.981Z,12.70
2022-10-17T04:14:21.155Z,12.70
2022-10-17T04:16:48.784Z,12.60
2022-10-17T04:19:20.749Z,12.60
2022-10-17T04:21:48.411Z,12.50
2022-10-17T04:24:16.305Z,12.50
2022-10-17T04:27:02.660Z,12.40
2022-10-17T04:29:33.106Z,12.40
2022-10-17T04:32:18.019Z,12.40
2022-10-17T04:34:58.140Z,12.40
2022-10-17T04:37:25.564Z,12.30
2022-10-17T04:39:54.983Z,12.30
2022-10-17T04:42:22.694Z,12.30
2022-10-17T04:44:53.023Z,12.30
2022-10-17T04:47:20.409Z,12.30
2022-10-17T04:49:47.833Z,12.20
2022-10-17T04:52:16.755Z,12.10
2022-10-17T04:54:45.615Z,12.10
2022-10-17T04:57:14.666Z,12.10
2022-10-17T04:59:47.502Z,12.10
2022-10-17T05:02:43.909Z,12.00
2022-10-17T05:05:11.332Z,12.00
2022-10-17T05:07:41.913Z,12.00
2022-10-17T05:10:19.418Z,11.90
2022-10-17T05:12:50.346Z,11.90
2022-10-17T05:15:19.805Z,11.90
2022-10-17T05:17:47.259Z,11.80
2022-10-17T05:20:14.980Z,11.80
2022-10-17T05:22:42.534Z,11.80
2022-10-17T05:25:11.772Z,11.80
2022-10-17T05:27:39.239Z,11.70
2022-10-17T05:30:07.464Z,11.70
2022-10-17T05:32:36.636Z,11.60
2022-10-17T05:35:04.417Z,11.60
2022-10-17T05:37:32.933Z,11.60
2022-10-17T05:40:02.718Z,11.60
2022-10-17T05:42:31.694Z,11.50
2022-10-17T05:45:00.606Z,11.50
2022-10-17T05:47:28.338Z,11.50
2022-10-17T05:49:56.108Z,11.50
2022-10-17T05:52:33.009Z,11.50
2022-10-17T05:55:09.087Z,11.50
2022-10-17T05:57:36.717Z,11.40
2022-10-17T06:00:07.765Z,11.40
2022-10-17T06:02:49.645Z,11.40
2022-10-17T06:05:19.173Z,11.40
2022-10-17T06:07:49.238Z,11.40
2022-10-17T06:10:18.644Z,11.30
2022-10-17T06:12:46.455Z,11.30
2022-10-17T06:15:15.226Z,11.30
2022-10-17T06:17:46.109Z,11.10
2022-10-17T06:20:13.737Z,11.10
2022-10-17T06:22:41.269Z,11.00
2022-10-17T06:25:14.917Z,10.90
2022-10-17T06:27:42.896Z,10.80
2022-10-17T06:30:11.959Z,10.80
2022-10-17T06:32:39.421Z,10.70
2022-10-17T06:35:07.037Z,10.60
2022-10-17T06:37:36.690Z,10.60
2022-10-17T06:40:10.428Z,10.40
2022-10-17T06:42:39.245Z,10.40
2022-10-17T06:45:09.310Z,10.30
2022-10-17T06:47:54.193Z,10.30
2022-10-17T06:51:00.661Z,10.20
2022-10-17T06:53:29.306Z,10.20
2022-10-17T06:56:15.055Z,10.20
2022-10-17T06:59:09.353Z,10.20
2022-10-17T07:01:40.685Z,10.10
2022-10-17T07:04:12.208Z,10.10
2022-10-17T07:06:39.712Z,10.10
2022-10-17T07:09:13.997Z,10.10
2022-10-17T07:11:41.983Z,10.10
2022-10-17T07:14:09.623Z,10.20
2022-10-17T07:16:37.129Z,10.20
2022-10-17T07:19:25.127Z,10.20
2022-10-17T07:21:53.132Z,10.10
2022-10-17T07:24:21.063Z,10.20
2022-10-17T07:27:08.733Z,10.10
2022-10-17T07:29:36.295Z,10.20
2022-10-17T07:32:19.060Z,10.20
2022-10-17T07:34:46.510Z,10.20
2022-10-17T07:37:14.366Z,10.20
2022-10-17T07:39:48.644Z,10.20
2022-10-17T07:42:16.924Z,10.20
2022-10-17T07:44:47.425Z,10.10
2022-10-17T07:47:14.955Z,10.10
2022-10-17T07:49:45.284Z,10.10
2022-10-17T07:52:13.393Z,10.00
2022-10-17T07:54:41.106Z,10.10
2022-10-17T07:57:08.996Z,10.10
2022-10-17T07:59:37.420Z,10.00
2022-10-17T08:02:04.832Z,10.00
2022-10-17T08:04:32.288Z,10.00
2022-10-17T08:07:11.319Z,10.00
2022-10-17T08:09:47.486Z,10.00
2022-10-17T08:12:15.277Z,10.10
2022-10-17T08:14:43.465Z,10.20
2022-10-17T08:17:10.849Z,10.30
2022-10-17T08:19:39.332Z,10.40
2022-10-17T08:22:07.427Z,10.50
2022-10-17T08:24:34.967Z,10.70
2022-10-17T08:27:02.503Z,10.80
2022-10-17T08:29:29.927Z,11.00
2022-10-17T08:32:00.821Z,11.20
2022-10-17T08:34:29.356Z,11.30
2022-10-17T08:36:56.978Z,11.50
2022-10-17T08:39:24.457Z,11.80
2022-10-17T08:41:54.840Z,11.90
2022-10-17T08:44:42.579Z,12.20
2022-10-17T08:47:12.671Z,12.30
2022-10-17T08:49:40.023Z,12.60
2022-10-17T08:52:11.378Z,12.70
2022-10-17T08:54:41.697Z,12.80
2022-10-17T08:57:11.934Z,13.00
2022-10-17T08:59:39.602Z,13.10
2022-10-17T09:02:26.340Z,13.30
2022-10-17T09:05:17.121Z,13.30
2022-10-17T09:07:59.951Z,13.50
2022-10-17T09:10:27.389Z,13.60
2022-10-17T09:13:13.659Z,13.80
2022-10-17T09:16:04.578Z,13.80
2022-10-17T09:18:34.212Z,14.00
2022-10-17T09:21:21.896Z,14.10
2022-10-17T09:24:03.792Z,14.20
2022-10-17T09:26:39.311Z,14.30
2022-10-17T09:29:14.704Z,14.40
2022-10-17T09:31:54.977Z,14.40
2022-10-17T09:34:25.234Z,14.50
2022-10-17T09:36:54.151Z,14.40
2022-10-17T09:39:24.819Z,14.40
2022-10-17T09:41:54.165Z,14.50
2022-10-17T09:44:22.027Z,14.50
2022-10-17T09:46:52.517Z,14.60
2022-10-17T09:49:25.404Z,14.70
2022-10-17T09:51:53.052Z,14.80
2022-10-17T09:54:22.579Z,14.80
2022-10-17T09:57:01.508Z,14.90
2022-10-17T09:59:52.419Z,15.00
2022-10-17T10:02:21.406Z,15.10
2022-10-17T10:05:03.691Z,15.20
2022-10-17T10:07:33.837Z,15.20
2022-10-17T10:10:03.196Z,15.30
2022-10-17T10:12:32.478Z,15.40
2022-10-17T10:15:00.499Z,15.40
2022-10-17T10:17:36.102Z,15.40
2022-10-17T10:20:23.715Z,15.50
2022-10-17T10:23:07.364Z,15.40
2022-10-17T10:25:35.495Z,15.50
2022-10-17T10:28:09.717Z,15.60
2022-10-17T10:30:39.817Z,15.80
2022-10-17T10:33:11.511Z,15.80
2022-10-17T10:35:39.031Z,16.00
2022-10-17T10:38:16.885Z,16.10
2022-10-17T10:40:52.796Z,16.20
2022-10-17T10:43:23.169Z,16.30
2022-10-17T10:45:51.491Z,16.20
2022-10-17T10:48:21.811Z,16.30
2022-10-17T10:50:50.894Z,16.30
2022-10-17T10:53:21.286Z,16.50
2022-10-17T10:55:54.461Z,16.70
2022-10-17T10:58:40.253Z,16.80
2022-10-17T11:01:28.531Z,16.80
2022-10-17T11:04:14.700Z,16.80
2022-10-17T11:06:43.896Z,16.90
2022-10-17T11:09:18.309Z,16.90
2022-10-17T11:11:48.208Z,16.90
2022-10-17T11:14:23.065Z,16.90
2022-10-17T11:16:56.328Z,16.80
2022-10-17T11:19:32.274Z,16.60
2022-10-17T11:22:07.540Z,16.60
2022-10-17T11:24:41.209Z,16.50
2022-10-17T11:27:08.668Z,16.40
2022-10-17T11:29:38.682Z,16.30
2022-10-17T11:32:12.810Z,16.30
2022-10-17T11:34:42.686Z,16.30
2022-10-17T11:37:14.385Z,16.30
2022-10-17T11:39:49.302Z,16.30
2022-10-17T11:42:22.090Z,16.20
2022-10-17T11:44:50.877Z,16.20
2022-10-17T11:47:18.330Z,16.30
2022-10-17T11:49:51.047Z,16.30
2022-10-17T11:52:51.810Z,16.30
2022-10-17T11:55:23.532Z,16.40
2022-10-17T11:57:50.915Z,16.40
2022-10-17T12:00:24.804Z,16.50
2022-10-17T12:03:10.784Z,16.50
2022-10-17T12:05:59.123Z,16.50
2022-10-17T12:08:46.744Z,16.60
2022-10-17T12:11:20.439Z,16.60
2022-10-17T12:13:49.076Z,16.60
2022-10-17T12:16:17.599Z,16.70
2022-10-17T12:18:45.721Z,16.80
2022-10-17T12:21:13.302Z,16.80
2022-10-17T12:23:41.285Z,16.90
2022-10-17T12:26:09.597Z,16.90
2022-10-17T12:28:37.318Z,17.00
2022-10-17T12:31:10.189Z,17.00
2022-10-17T12:33:51.823Z,17.00
2022-10-17T12:36:21.222Z,17.00
2022-10-17T12:38:50.429Z,17.00
2022-10-17T12:41:37.972Z,17.00
2022-10-17T12:44:15.149Z,17.00
2022-10-17T12:46:52.164Z,17.10
2022-10-17T12:49:19.758Z,17.10
2022-10-17T12:52:05.422Z,17.20
2022-10-17T12:54:47.804Z,17.20
2022-10-17T12:57:24.871Z,17.20
2022-10-17T12:59:56.625Z,17.30
2022-10-17T13:02:27.399Z,17.30
2022-10-17T13:04:59.081Z,17.30
2022-10-17T13:07:26.941Z,17.30
2022-10-17T13:09:54.729Z,17.40
2022-10-17T13:12:24.866Z,17.50
2022-10-17T13:14:54.012Z,17.50
2022-10-17T13:17:27.612Z,17.60
2022-10-17T13:19:55.665Z,17.50
2022-10-17T13:22:23.099Z,17.40
2022-10-17T13:24:51.575Z,17.40
2022-10-17T13:27:23.806Z,17.40
2022-10-17T13:29:51.268Z,17.30
2022-10-17T13:32:18.622Z,17.20
2022-10-17T13:34:45.993Z,17.10
2022-10-17T13:37:14.854Z,17.00
2022-10-17T13:39:55.300Z,17.00
2022-10-17T13:42:25.787Z,17.00
2022-10-17T13:44:53.270Z,17.00
2022-10-17T13:47:22.079Z,17.00
2022-10-17T13:49:52.907Z,17.00
2022-10-17T13:52:24.920Z,17.00
2022-10-17T13:54:53.305Z,16.90
2022-10-17T13:57:25.078Z,16.90
2022-10-17T14:00:09.951Z,16.80
2022-10-17T14:02:42.022Z,16.90
2022-10-17T14:05:17.688Z,16.90
2022-10-17T14:08:21.895Z,16.80
2022-10-17T14:10:47.740Z,16.80
2022-10-17T14:13:25.670Z,16.70
2022-10-17T14:15:54.819Z,16.70
2022-10-17T14:18:29.879Z,16.70
2022-10-17T14:21:34.388Z,16.70
2022-10-17T14:23:48.870Z,16.70
2022-10-17T14:26:25.393Z,16.70
2022-10-17T14:29:19.972Z,16.70
2022-10-17T14:31:50.798Z,16.70
2022-10-17T14:34:22.380Z,16.60
2022-10-17T14:36:51.287Z,16.60
2022-10-17T14:39:20.807Z,16.60
2022-10-17T14:41:48.225Z,16.60
2022-10-17T14:44:26.298Z,16.60
2022-10-17T14:46:55.100Z,16.50
2022-10-17T14:49:33.494Z,16.50
2022-10-17T14:52:13.690Z,16.50
2022-10-17T14:54:46.777Z,16.50
2022-10-17T14:57:19.149Z,16.50
2022-10-17T14:59:55.485Z,16.40
2022-10-17T15:02:27.489Z,16.40
2022-10-17T15:04:55.347Z,16.40
2022-10-17T15:07:23.961Z,16.30
2022-10-17T15:09:52.967Z,16.30
2022-10-17T15:12:25.299Z,16.30
2022-10-17T15:14:53.367Z,16.20
2022-10-17T15:17:28.477Z,16.20
2022-10-17T15:19:56.447Z,16.20
2022-10-17T15:22:23.985Z,16.10
2022-10-17T15:24:51.868Z,16.10
2022-10-17T15:27:20.459Z,16.10
2022-10-17T15:29:48.157Z,16.00
2022-10-17T15:32:15.938Z,16.00
2022-10-17T15:34:43.476Z,15.90
2022-10-17T15:37:22.266Z,15.90
2022-10-17T15:39:54.720Z,15.90
2022-10-17T15:42:23.135Z,15.80
2022-10-17T15:44:50.703Z,15.80
2022-10-17T15:47:25.943Z,15.80
2022-10-17T15:49:58.433Z,15.70
2022-10-17T15:52:29.604Z,15.70
2022-10-17T15:55:00.865Z,15.60
2022-10-17T15:57:34.222Z,15.60
2022-10-17T16:00:01.745Z,15.50
2022-10-17T16:02:29.334Z,15.50
2022-10-17T16:04:56.693Z,15.40
2022-10-17T16:07:24.089Z,15.40
2022-10-17T16:09:51.864Z,15.30
2022-10-17T16:14:50.711Z,15.30
2022-10-17T16:17:18.342Z,15.20
2022-10-17T16:19:45.688Z,15.20
2022-10-17T16:22:19.025Z,15.10
2022-10-17T16:24:46.651Z,15.10
2022-10-17T16:27:14.205Z,15.00
2022-10-17T16:29:41.663Z,14.90
2022-10-17T16:32:09.328Z,14.80
2022-10-17T16:34:36.627Z,14.80
2022-10-17T16:37:04.076Z,14.60
2022-10-17T16:39:31.496Z,14.50
2022-10-17T16:41:58.880Z,14.40
2022-10-17T16:44:26.402Z,14.30
2022-10-17T16:46:53.798Z,14.30
2022-10-17T16:49:21.217Z,14.10
2022-10-17T16:51:48.641Z,14.00
2022-10-17T16:54:16.073Z,13.90
2022-10-17T16:56:43.412Z,13.70
2022-10-17T16:59:11.590Z,13.60
2022-10-17T17:01:39.236Z,13.50
2022-10-17T17:04:06.627Z,13.30
2022-10-17T17:06:33.995Z,13.20
2022-10-17T17:09:01.482Z,13.10
2022-10-17T17:11:29.053Z,12.90
2022-10-17T17:13:57.071Z,12.80
2022-10-17T17:16:25.304Z,12.70
2022-10-17T17:18:56.662Z,12.60
2022-10-17T17:21:24.474Z,12.40
2022-10-17T17:23:52.123Z,12.30
2022-10-17T17:26:20.567Z,12.10
2022-10-17T17:28:48.587Z,12.00
2022-10-17T17:31:18.693Z,11.90
2022-10-17T17:33:46.964Z,11.90
2022-10-17T17:36:17.268Z,11.90
2022-10-17T17:38:45.022Z,11.90
2022-10-17T17:41:14.031Z,12.00
2022-10-17T17:43:42.307Z,12.00
2022-10-17T17:46:10.035Z,12.00
2022-10-17T17:48:38.543Z,12.10
2022-10-17T17:51:06.591Z,12.00
2022-10-17T17:53:34.457Z,11.90
2022-10-17T17:56:02.848Z,11.90
2022-10-17T17:58:30.329Z,11.90
2022-10-17T18:00:57.980Z,11.90
2022-10-17T18:03:25.767Z,11.90
2022-10-17T18:05:53.679Z,12.00
2022-10-17T18:08:21.256Z,11.90
2022-10-17T18:10:49.481Z,11.90
2022-10-17T18:13:17.100Z,11.90
2022-10-17T18:15:44.662Z,11.90
2022-10-17T18:18:12.151Z,11.80
2022-10-17T18:20:40.255Z,11.80
2022-10-17T18:23:07.947Z,11.80
2022-10-17T18:25:35.550Z,11.80
2022-10-17T18:28:03.365Z,11.80
2022-10-17T18:30:33.760Z,11.70
2022-10-17T18:33:02.146Z,11.70
2022-10-17T18:35:29.541Z,11.60
2022-10-17T18:37:57.082Z,11.60
2022-10-17T18:40:24.494Z,11.60
2022-10-17T18:42:51.862Z,11.60
2022-10-17T18:45:19.428Z,11.50
2022-10-17T18:47:47.607Z,11.40
2022-10-17T18:50:15.006Z,11.30
2022-10-17T18:52:42.576Z,11.20
2022-10-17T18:55:10.010Z,11.10
2022-10-17T18:57:37.365Z,10.90
2022-10-17T19:00:05.494Z,10.80
2022-10-17T19:02:35.556Z,10.70
2022-10-17T19:05:05.475Z,10.60
2022-10-17T19:07:33.029Z,10.50
2022-10-17T19:10:00.593Z,10.40
2022-10-17T19:12:28.004Z,10.30
2022-10-17T19:14:56.402Z,10.30
2022-10-17T19:17:23.816Z,10.20
2022-10-17T19:19:52.359Z,10.00
2022-10-17T19:22:19.729Z,9.80
2022-10-17T19:24:47.229Z,9.60
2022-10-17T19:27:14.648Z,9.50
2022-10-17T19:29:44.038Z,9.30
2022-10-17T19:32:15.716Z,9.20
2022-10-17T19:34:45.681Z,9.10
2022-10-17T19:37:13.450Z,9.00
2022-10-17T19:39:41.067Z,8.90
2022-10-17T19:42:08.540Z,8.80
2022-10-17T19:44:36.029Z,8.60
2022-10-17T19:47:03.571Z,8.50
2022-10-17T19:49:31.192Z,8.40
2022-10-17T19:51:59.047Z,8.30
2022-10-17T19:54:26.752Z,8.30
2022-10-17T19:56:54.153Z,8.20
2022-10-17T19:59:21.720Z,8.20
2022-10-17T20:01:49.250Z,8.10
2022-10-17T20:04:16.656Z,7.90
2022-10-17T20:06:44.064Z,7.80
2022-10-17T20:09:15.730Z,7.80
2022-10-17T20:11:45.069Z,7.70
2022-10-17T20:14:12.512Z,7.60
2022-10-17T20:16:39.958Z,7.60
2022-10-17T20:19:09.454Z,7.50
2022-10-17T20:21:37.366Z,7.40
2022-10-17T20:24:05.749Z,7.40
2022-10-17T20:26:38.143Z,7.30
2022-10-17T20:29:11.456Z,7.30
2022-10-17T20:31:40.430Z,7.30
2022-10-17T20:34:08.212Z,7.20
2022-10-17T20:36:37.515Z,7.10
2022-10-17T20:39:05.392Z,7.10
2022-10-17T20:41:33.058Z,7.10
2022-10-17T20:44:00.562Z,7.10
2022-10-17T20:49:17.576Z,6.90
2022-10-17T20:51:45.549Z,6.90
2022-10-17T20:54:13.913Z,6.80
2022-10-17T20:56:41.721Z,6.80
2022-10-17T20:59:12.282Z,6.80
2022-10-17T21:01:40.061Z,6.70
2022-10-17T21:04:40.637Z,6.70
2022-10-17T21:06:55.433Z,6.60
2022-10-17T21:09:23.018Z,6.50
2022-10-17T21:11:54.284Z,6.40
2022-10-17T21:22:36.073Z,6.10
2022-10-17T21:31:52.252Z,6.00
2022-10-17T21:34:21.483Z,6.10
2022-10-17T21:36:49.496Z,6.10
2022-10-17T21:39:17.434Z,6.20
2022-10-17T21:41:45.553Z,6.10
2022-10-17T21:44:26.107Z,6.00
